createdAt,value
2019-05-03T00:00:37.881Z,75.738525
2019-05-03T00:01:37.290Z,75.256348
2019-05-03T00:02:37.691Z,75.463867
2019-05-03T00:03:37.093Z,75.738525
2019-05-03T00:04:48.339Z,75.634766
2019-05-03T00:05:47.691Z,75.427246
2019-05-03T00:06:47.418Z,76.153564
2019-05-03T00:07:46.885Z,75.531006
2019-05-03T00:07:58.729Z,75.323486
2019-05-03T00:08:58.092Z,75.323486
2019-05-03T00:09:57.530Z,74.707031
2019-05-03T00:10:56.933Z,74.737549
2019-05-03T00:12:08.233Z,74.603271
2019-05-03T00:13:07.718Z,74.707031
2019-05-03T00:14:07.169Z,75.256348
2019-05-03T00:15:18.415Z,75.671387
2019-05-03T00:16:18.137Z,75.567627
2019-05-03T00:17:17.767Z,75.878906
2019-05-03T00:18:17.079Z,75.671387
2019-05-03T00:19:28.470Z,75.982666
2019-05-03T00:20:27.858Z,76.086426
2019-05-03T00:21:27.283Z,75.775146
2019-05-03T00:22:27.740Z,75.671387
2019-05-03T00:23:27.079Z,76.287842
2019-05-03T00:24:38.495Z,76.635742
2019-05-03T00:25:37.834Z,77.050781
2019-05-03T00:26:38.345Z,77.667236
2019-05-03T00:27:37.856Z,78.082275
2019-05-03T00:28:37.385Z,78.430176
2019-05-03T00:29:36.743Z,78.637695
2019-05-03T00:29:48.662Z,78.637695
2019-05-03T00:30:48.093Z,78.845215
2019-05-03T00:31:47.479Z,79.052734
2019-05-03T00:32:46.994Z,79.156494
2019-05-03T00:33:58.467Z,79.260254
2019-05-03T00:34:57.868Z,79.260254
2019-05-03T00:35:57.315Z,79.467773
2019-05-03T00:36:56.891Z,79.364014
2019-05-03T00:37:08.724Z,79.260254
2019-05-03T00:38:08.210Z,79.467773
2019-05-03T00:39:07.637Z,79.364014
2019-05-03T00:40:07.184Z,79.260254
2019-05-03T00:41:18.526Z,79.705811
2019-05-03T00:42:17.964Z,79.80957
2019-05-03T00:43:17.518Z,80.01709
2019-05-03T00:44:16.841Z,80.328369
2019-05-03T00:45:28.207Z,80.328369
2019-05-03T00:46:27.853Z,80.328369
2019-05-03T00:47:27.291Z,80.535889
2019-05-03T00:48:26.656Z,80.639648
2019-05-03T00:48:38.557Z,80.639648
2019-05-03T00:49:38.151Z,80.639648
2019-05-03T00:50:37.503Z,80.639648
2019-05-03T00:51:36.959Z,80.847168
2019-05-03T00:52:48.471Z,80.743408
2019-05-03T00:53:47.780Z,80.847168
2019-05-03T00:54:47.286Z,80.847168
2019-05-03T00:55:47.889Z,80.743408
2019-05-03T00:56:47.442Z,80.224609
2019-05-03T00:57:46.890Z,80.432129
2019-05-03T00:58:58.249Z,80.224609
2019-05-03T00:59:56.904Z,79.772949
2019-05-03T01:01:08.233Z,79.669189
2019-05-03T01:02:07.696Z,79.876709
2019-05-03T01:03:07.122Z,79.364014
2019-05-03T01:04:18.446Z,78.845215
2019-05-03T01:05:17.918Z,78.741455
2019-05-03T01:06:17.389Z,78.948975
2019-05-03T01:07:16.724Z,79.052734
2019-05-03T01:07:28.560Z,79.052734
2019-05-03T01:08:28.131Z,79.052734
2019-05-03T01:09:27.432Z,78.741455
2019-05-03T01:10:26.874Z,78.778076
2019-05-03T01:11:38.430Z,78.778076
2019-05-03T01:12:37.778Z,78.674316
2019-05-03T01:13:37.225Z,79.022217
2019-05-03T01:14:36.653Z,79.541016
2019-05-03T01:14:48.670Z,79.541016
2019-05-03T01:15:48.047Z,79.541016
2019-05-03T01:16:47.577Z,79.022217
2019-05-03T01:17:47.977Z,78.710938
2019-05-03T01:18:47.594Z,78.607178
2019-05-03T01:19:47.044Z,78.607178
2019-05-03T01:20:58.499Z,78.399658
2019-05-03T01:21:58.024Z,78.192139
2019-05-03T01:22:57.493Z,78.088379
2019-05-03T01:23:56.929Z,78.399658
2019-05-03T01:24:57.251Z,78.607178
2019-05-03T01:25:57.746Z,79.022217
2019-05-03T01:26:57.185Z,79.541016
2019-05-03T01:27:56.805Z,79.638672
2019-05-03T01:28:08.639Z,79.742432
2019-05-03T01:29:08.031Z,79.638672
2019-05-03T01:30:07.455Z,79.742432
2019-05-03T01:31:07.909Z,79.638672
2019-05-03T01:32:07.549Z,79.638672
2019-05-03T01:33:07.135Z,79.541016
2019-05-03T01:34:06.657Z,79.333496
2019-05-03T01:34:18.498Z,79.333496
2019-05-03T01:35:18.023Z,79.541016
2019-05-03T01:36:17.344Z,79.638672
2019-05-03T01:37:16.648Z,79.541016
2019-05-03T01:37:28.690Z,79.437256
2019-05-03T01:38:28.197Z,79.022217
2019-05-03T01:39:27.670Z,79.022217
2019-05-03T01:40:27.089Z,79.193115
2019-05-03T01:41:38.511Z,78.607178
2019-05-03T01:42:38.121Z,79.022217
2019-05-03T01:43:37.566Z,79.638672
2019-05-03T01:44:36.965Z,79.742432
2019-05-03T01:45:48.414Z,79.437256
2019-05-03T01:46:47.674Z,79.125977
2019-05-03T01:47:47.110Z,79.473877
2019-05-03T01:48:46.885Z,78.955078
2019-05-03T01:49:58.068Z,79.162598
2019-05-03T01:50:57.681Z,79.510498
2019-05-03T01:51:57.166Z,80.126953
2019-05-03T01:53:08.429Z,80.645752
2019-05-03T01:54:07.928Z,80.645752
2019-05-03T01:55:07.457Z,80.541992
2019-05-03T01:56:06.890Z,80.541992
2019-05-03T01:56:18.730Z,80.541992
2019-05-03T01:57:18.216Z,80.645752
2019-05-03T01:58:17.723Z,80.853271
2019-05-03T01:59:17.127Z,80.957031
2019-05-03T02:00:16.781Z,80.749512
2019-05-03T02:00:28.620Z,80.853271
2019-05-03T02:01:28.167Z,80.889893
2019-05-03T02:02:27.722Z,80.993652
2019-05-03T02:03:27.166Z,81.201172
2019-05-03T02:04:38.476Z,81.304932
2019-05-03T02:05:37.935Z,81.408691
2019-05-03T02:06:37.246Z,81.304932
2019-05-03T02:07:36.682Z,81.37207
2019-05-03T02:07:48.807Z,81.47583
2019-05-03T02:08:48.016Z,81.57959
2019-05-03T02:09:47.458Z,81.164551
2019-05-03T02:10:46.938Z,80.609131
2019-05-03T02:11:58.354Z,79.986572
2019-05-03T02:12:57.863Z,79.675293
2019-05-03T02:13:57.383Z,79.058838
2019-05-03T02:14:56.698Z,78.955078
2019-05-03T02:15:08.654Z,78.955078
2019-05-03T02:16:08.174Z,78.851318
2019-05-03T02:17:07.654Z,78.747559
2019-05-03T02:18:07.067Z,78.436279
2019-05-03T02:19:06.651Z,78.22876
2019-05-03T02:19:18.489Z,78.22876
2019-05-03T02:20:17.968Z,78.22876
2019-05-03T02:21:17.416Z,78.436279
2019-05-03T02:22:16.932Z,78.436279
2019-05-03T02:23:28.300Z,78.22876
2019-05-03T02:24:27.834Z,78.540039
2019-05-03T02:25:27.470Z,78.125
2019-05-03T02:26:27.808Z,78.33252
2019-05-03T02:27:27.228Z,78.295898
2019-05-03T02:28:26.798Z,77.984619
2019-05-03T02:28:38.701Z,77.984619
2019-05-03T02:29:38.190Z,77.880859
2019-05-03T02:30:37.754Z,77.56958
2019-05-03T02:31:37.057Z,77.258301
2019-05-03T02:32:48.353Z,77.154541
2019-05-03T02:33:48.081Z,76.635742
2019-05-03T02:34:47.384Z,76.123047
2019-05-03T02:35:46.831Z,76.739502
2019-05-03T02:36:58.330Z,78.02124
2019-05-03T02:37:57.743Z,78.643799
2019-05-03T02:38:57.173Z,78.918457
2019-05-03T02:39:56.761Z,79.779053
2019-05-03T02:40:08.648Z,79.986572
2019-05-03T02:40:57.271Z,81.12793
2019-05-03T02:42:02.754Z,82.061768
2019-05-03T02:42:11.529Z,82.061768
2019-05-03T02:43:07.980Z,82.025146
2019-05-03T02:44:07.529Z,82.025146
2019-05-03T02:45:07.015Z,82.336426
2019-05-03T02:46:18.468Z,82.647705
2019-05-03T02:47:17.977Z,82.092285
2019-05-03T02:48:17.505Z,81.677246
2019-05-03T02:49:16.916Z,82.092285
2019-05-03T02:49:28.749Z,82.189941
2019-05-03T02:50:28.184Z,82.293701
2019-05-03T02:51:27.827Z,82.189941
2019-05-03T02:52:27.338Z,81.738281
2019-05-03T02:53:26.717Z,81.640625
2019-05-03T02:53:38.556Z,81.640625
2019-05-03T02:54:38.136Z,81.329346
2019-05-03T02:55:37.561Z,81.536865
2019-05-03T02:56:37.939Z,79.876709
2019-05-03T02:57:37.361Z,79.772949
2019-05-03T02:58:36.683Z,79.876709
2019-05-03T02:58:48.712Z,79.876709
2019-05-03T02:59:49.858Z,79.364014
2019-05-03T03:00:47.659Z,78.601074
2019-05-03T03:01:47.013Z,78.393555
2019-05-03T03:02:58.479Z,76.635742
2019-05-03T03:03:57.891Z,75.500488
2019-05-03T03:04:57.249Z,75.909424
2019-05-03T03:06:08.638Z,76.495361
2019-05-03T03:07:08.085Z,75.982666
2019-05-03T03:08:07.514Z,76.086426
2019-05-03T03:09:06.916Z,75.567627
2019-05-03T03:10:18.328Z,75.567627
2019-05-03T03:11:17.794Z,75.463867
2019-05-03T03:12:17.199Z,74.633789
2019-05-03T03:13:16.809Z,74.432373
2019-05-03T03:13:28.650Z,74.530029
2019-05-03T03:14:28.065Z,75.152588
2019-05-03T03:15:27.482Z,74.945068
2019-05-03T03:16:27.072Z,75.048828
2019-05-03T03:17:38.382Z,75.360107
2019-05-03T03:18:37.848Z,75.567627
2019-05-03T03:19:37.394Z,75.360107
2019-05-03T03:20:36.641Z,75.604248
2019-05-03T03:20:48.648Z,75.671387
2019-05-03T03:21:48.302Z,75.982666
2019-05-03T03:22:47.860Z,76.324463
2019-05-03T03:23:47.242Z,76.428223
2019-05-03T03:24:46.707Z,76.843262
2019-05-03T03:24:58.542Z,76.843262
2019-05-03T03:25:58.128Z,76.843262
2019-05-03T03:26:47.349Z,76.739502
2019-05-03T03:26:58.571Z,76.635742
2019-05-03T03:27:58.163Z,76.879883
2019-05-03T03:28:57.609Z,76.983643
2019-05-03T03:29:56.955Z,77.392578
2019-05-03T03:31:08.851Z,77.807617
2019-05-03T03:31:58.249Z,77.703857
2019-05-03T03:32:57.872Z,77.496338
2019-05-03T03:33:58.990Z,77.911377
2019-05-03T03:34:08.879Z,77.911377
2019-05-03T03:35:02.908Z,78.118896
2019-05-03T03:36:01.389Z,78.015137
2019-05-03T03:37:03.643Z,78.015137
2019-05-03T03:37:46.850Z,78.155518
2019-05-03T03:38:58.194Z,78.466797
2019-05-03T03:39:57.843Z,78.674316
2019-05-03T03:40:58.809Z,78.778076
2019-05-03T03:41:56.738Z,78.881836
2019-05-03T03:42:08.603Z,78.985596
2019-05-03T03:43:08.124Z,78.778076
2019-05-03T03:44:07.567Z,79.296875
2019-05-03T03:45:07.093Z,79.296875
2019-05-03T03:46:18.377Z,78.778076
2019-05-03T03:47:18.187Z,78.741455
2019-05-03T03:48:17.687Z,78.637695
2019-05-03T03:49:17.000Z,78.741455
2019-05-03T03:50:28.357Z,78.845215
2019-05-03T03:51:27.749Z,79.156494
2019-05-03T03:52:27.212Z,79.052734
2019-05-03T03:53:26.822Z,79.052734
2019-05-03T03:53:38.696Z,79.052734
2019-05-03T03:54:38.176Z,79.156494
2019-05-03T03:55:37.548Z,79.56543
2019-05-03T03:56:53.716Z,79.669189
2019-05-03T03:57:37.631Z,79.772949
2019-05-03T03:58:37.140Z,79.56543
2019-05-03T03:59:48.462Z,79.156494
2019-05-03T04:00:48.066Z,79.364014
2019-05-03T04:01:47.493Z,79.052734
2019-05-03T04:02:46.962Z,78.948975
2019-05-03T04:03:58.389Z,78.948975
2019-05-03T04:04:57.874Z,78.845215
2019-05-03T04:05:57.235Z,78.741455
2019-05-03T04:07:00.896Z,78.845215
2019-05-03T04:07:57.374Z,78.845215
2019-05-03T04:08:56.812Z,78.948975
2019-05-03T04:09:57.222Z,79.260254
2019-05-03T04:11:08.476Z,79.156494
2019-05-03T04:12:07.995Z,78.637695
2019-05-03T04:13:07.714Z,78.601074
2019-05-03T04:14:07.064Z,79.016113
2019-05-03T04:15:18.500Z,79.528809
2019-05-03T04:16:20.852Z,79.736328
2019-05-03T04:17:18.429Z,80.462646
2019-05-03T04:18:18.058Z,80.529785
2019-05-03T04:19:17.616Z,79.595947
2019-05-03T04:20:16.740Z,79.803467
2019-05-03T04:20:28.612Z,79.907227
2019-05-03T04:21:28.208Z,80.010986
2019-05-03T04:22:27.513Z,79.803467
2019-05-03T04:23:26.956Z,80.218506
2019-05-03T04:24:38.500Z,80.218506
2019-05-03T04:25:38.042Z,79.803467
2019-05-03T04:26:37.417Z,79.699707
2019-05-03T04:27:37.932Z,79.699707
2019-05-03T04:28:37.537Z,79.699707
2019-05-03T04:29:37.036Z,79.699707
2019-05-03T04:30:48.279Z,80.151367
2019-05-03T04:31:47.758Z,80.462646
2019-05-03T04:32:47.219Z,80.773926
2019-05-03T04:33:47.371Z,80.773926
2019-05-03T04:34:47.258Z,81.085205
2019-05-03T04:35:47.284Z,81.085205
2019-05-03T04:36:47.276Z,81.085205
2019-05-03T04:37:47.471Z,81.292725
2019-05-03T04:38:47.401Z,81.188965
2019-05-03T04:39:47.824Z,81.390381
2019-05-03T04:40:48.121Z,81.188965
2019-05-03T04:41:48.314Z,80.877686
2019-05-03T04:42:48.552Z,80.670166
2019-05-03T04:43:48.532Z,80.358887
2019-05-03T04:44:48.609Z,80.566406
2019-05-03T04:45:46.811Z,80.255127
2019-05-03T04:46:46.895Z,80.010986
2019-05-03T04:47:47.240Z,79.699707
2019-05-03T04:48:47.484Z,79.595947
2019-05-03T04:49:47.327Z,79.699707
2019-05-03T04:50:47.614Z,79.492188
2019-05-03T04:51:47.521Z,79.187012
2019-05-03T04:52:47.441Z,78.564453
2019-05-03T04:53:47.572Z,78.460693
2019-05-03T04:54:47.689Z,77.600098
2019-05-03T04:55:47.746Z,77.392578
2019-05-03T04:56:47.090Z,76.873779
2019-05-03T04:57:50.249Z,77.081299
2019-05-03T04:58:47.381Z,78.009033
2019-05-03T04:59:46.974Z,78.320312
2019-05-03T05:00:47.350Z,77.600098
2019-05-03T05:01:46.996Z,77.807617
2019-05-03T05:02:58.326Z,78.527832
2019-05-03T05:03:57.773Z,78.112793
2019-05-03T05:04:57.228Z,77.496338
2019-05-03T05:06:08.501Z,77.600098
2019-05-03T05:07:06.965Z,78.009033
2019-05-03T05:08:18.442Z,78.527832
2019-05-03T05:09:17.966Z,78.527832
2019-05-03T05:10:17.309Z,79.35791
2019-05-03T05:11:16.724Z,79.455566
2019-05-03T05:11:28.568Z,79.455566
2019-05-03T05:12:28.355Z,79.663086
2019-05-03T05:13:27.890Z,79.455566
2019-05-03T05:14:27.367Z,79.870605
2019-05-03T05:15:26.900Z,79.25415
2019-05-03T05:16:39.743Z,78.942871
2019-05-03T05:17:37.980Z,79.150391
2019-05-03T05:18:37.365Z,78.839111
2019-05-03T05:19:36.969Z,78.90625
2019-05-03T05:20:48.285Z,79.01001
2019-05-03T05:21:47.785Z,79.01001
2019-05-03T05:22:47.548Z,78.491211
2019-05-03T05:23:47.063Z,78.076172
2019-05-03T05:24:47.530Z,78.387451
2019-05-03T05:25:46.926Z,79.01001
2019-05-03T05:26:58.241Z,78.35083
2019-05-03T05:27:57.766Z,78.45459
2019-05-03T05:28:57.200Z,77.838135
2019-05-03T05:29:56.813Z,77.734375
2019-05-03T05:30:08.657Z,77.734375
2019-05-03T05:31:08.261Z,77.941895
2019-05-03T05:32:07.796Z,77.319336
2019-05-03T05:33:07.329Z,77.630615
2019-05-03T05:34:08.798Z,77.423096
2019-05-03T05:34:18.687Z,77.319336
2019-05-03T05:35:18.316Z,76.702881
2019-05-03T05:36:17.751Z,77.008057
2019-05-03T05:37:18.225Z,77.526855
2019-05-03T05:38:18.130Z,77.630615
2019-05-03T05:39:06.794Z,76.904297
2019-05-03T05:40:06.688Z,76.080322
2019-05-03T05:40:18.628Z,76.184082
2019-05-03T05:41:18.386Z,75.976562
2019-05-03T05:42:18.213Z,75.872803
2019-05-03T05:43:18.080Z,76.287842
2019-05-03T05:44:17.856Z,76.495361
2019-05-03T05:45:17.388Z,76.35498
2019-05-03T05:46:17.988Z,76.5625
2019-05-03T05:47:17.480Z,76.5625
2019-05-03T05:48:16.886Z,76.45874
2019-05-03T05:49:28.410Z,77.075195
2019-05-03T05:50:27.839Z,77.075195
2019-05-03T05:51:27.245Z,77.557373
2019-05-03T05:52:26.900Z,76.733398
2019-05-03T05:52:38.748Z,76.629639
2019-05-03T05:53:38.138Z,77.148438
2019-05-03T05:54:37.603Z,76.940918
2019-05-03T05:55:37.131Z,77.148438
2019-05-03T05:56:48.422Z,76.940918
2019-05-03T05:57:47.878Z,77.215576
2019-05-03T05:58:47.441Z,77.520752
2019-05-03T05:59:46.828Z,77.416992
2019-05-03T06:00:58.305Z,77.416992
2019-05-03T06:01:57.713Z,77.313232
2019-05-03T06:02:57.054Z,76.696777
2019-05-03T06:04:09.992Z,77.111816
2019-05-03T06:05:08.227Z,77.075195
2019-05-03T06:06:07.650Z,77.075195
2019-05-03T06:07:07.083Z,76.763916
2019-05-03T06:08:18.325Z,76.971436
2019-05-03T06:09:17.808Z,76.043701
2019-05-03T06:10:17.152Z,75.115967
2019-05-03T06:11:16.814Z,76.00708
2019-05-03T06:11:28.712Z,76.00708
2019-05-03T06:12:28.153Z,76.2146
2019-05-03T06:13:16.876Z,76.2146
2019-05-03T06:13:28.733Z,76.2146
2019-05-03T06:14:28.070Z,76.831055
2019-05-03T06:15:27.734Z,76.422119
2019-05-03T06:16:27.403Z,76.727295
2019-05-03T06:17:27.701Z,77.038574
2019-05-03T06:18:27.129Z,77.416992
2019-05-03T06:19:26.674Z,78.240967
2019-05-03T06:19:38.513Z,78.649902
2019-05-03T06:20:38.186Z,77.380371
2019-05-03T06:21:37.629Z,76.043701
2019-05-03T06:22:37.525Z,73.883057
2019-05-03T06:23:37.027Z,71.923828
2019-05-03T06:24:48.318Z,70.483398
2019-05-03T06:25:47.866Z,70.178223
2019-05-03T06:26:47.384Z,70.690918
2019-05-03T06:27:46.780Z,70.898438
2019-05-03T06:27:58.630Z,70.898438
2019-05-03T06:28:47.183Z,69.970703
2019-05-03T06:29:58.516Z,69.042969
2019-05-03T06:30:57.048Z,70.275879
2019-05-03T06:31:57.561Z,69.177246
2019-05-03T06:32:56.881Z,68.87207
2019-05-03T06:34:08.411Z,69.519043
2019-05-03T06:35:07.936Z,69.311523
2019-05-03T06:36:07.631Z,69.622803
2019-05-03T06:37:07.027Z,70.684814
2019-05-03T06:38:18.272Z,69.036865
2019-05-03T06:39:17.575Z,69.451904
2019-05-03T06:40:16.962Z,68.725586
2019-05-03T06:41:16.672Z,69.244385
2019-05-03T06:41:28.621Z,69.549561
2019-05-03T06:42:28.160Z,69.549561
2019-05-03T06:43:16.795Z,69.75708
2019-05-03T06:44:19.128Z,70.239258
2019-05-03T06:45:10.169Z,69.110107
2019-05-03T06:45:18.581Z,68.487549
2019-05-03T06:46:18.325Z,68.286133
2019-05-03T06:47:10.415Z,69.622803
2019-05-03T06:47:18.604Z,70.239258
2019-05-03T06:48:07.019Z,70.550537
2019-05-03T06:49:10.031Z,69.622803
2019-05-03T06:50:08.050Z,70.172119
2019-05-03T06:51:10.505Z,68.52417
2019-05-03T06:52:06.998Z,69.244385
2019-05-03T06:53:12.569Z,69.549561
2019-05-03T06:54:06.811Z,70.098877
2019-05-03T06:54:20.472Z,69.482422
2019-05-03T06:55:10.425Z,68.450928
2019-05-03T06:56:06.923Z,69.586182
2019-05-03T06:57:09.410Z,69.482422
2019-05-03T06:58:06.819Z,69.995117
2019-05-03T06:58:30.297Z,69.586182
2019-05-03T06:59:07.298Z,69.9646
2019-05-03T07:00:06.798Z,69.549561
2019-05-03T07:00:18.730Z,69.244385
2019-05-03T07:01:18.633Z,68.933105
2019-05-03T07:02:18.341Z,70.135498
2019-05-03T07:03:06.845Z,68.798828
2019-05-03T07:04:18.527Z,69.830322
2019-05-03T07:05:17.966Z,70.928955
2019-05-03T07:06:17.420Z,70.20874
2019-05-03T07:07:18.005Z,68.560791
2019-05-03T07:08:06.741Z,68.634033
2019-05-03T07:08:18.620Z,68.634033
2019-05-03T07:09:18.416Z,66.986084
2019-05-03T07:10:06.840Z,66.369629
2019-05-03T07:10:18.747Z,66.473389
2019-05-03T07:11:06.839Z,66.778564
2019-05-03T07:11:18.733Z,67.089844
2019-05-03T07:12:06.903Z,67.39502
2019-05-03T07:13:18.521Z,66.851807
2019-05-03T07:14:18.339Z,67.163086
2019-05-03T07:15:17.925Z,66.851807
2019-05-03T07:16:17.674Z,66.748047
2019-05-03T07:17:17.389Z,68.981934
2019-05-03T07:18:16.937Z,66.101074
2019-05-03T07:19:28.374Z,66.412354
2019-05-03T07:20:27.930Z,66.925049
2019-05-03T07:21:27.423Z,67.126465
2019-05-03T07:22:26.977Z,66.308594
2019-05-03T07:23:38.601Z,65.484619
2019-05-03T07:24:40.726Z,66.998291
2019-05-03T07:25:37.492Z,69.873047
2019-05-03T07:26:36.884Z,70.251465
2019-05-03T07:27:37.518Z,66.96167
2019-05-03T07:28:46.111Z,70.043945
2019-05-03T07:29:48.356Z,67.681885
2019-05-03T07:30:47.933Z,65.319824
2019-05-03T07:31:47.392Z,66.448975
2019-05-03T07:32:46.784Z,68.4021
2019-05-03T07:32:58.805Z,68.29834
2019-05-03T07:33:58.205Z,67.681885
2019-05-03T07:34:57.690Z,67.858887
2019-05-03T07:35:57.038Z,65.185547
2019-05-03T07:36:56.674Z,66.009521
2019-05-03T07:37:08.513Z,65.905762
2019-05-03T07:38:07.865Z,65.393066
2019-05-03T07:39:07.334Z,67.242432
2019-05-03T07:40:06.875Z,67.62085
2019-05-03T07:40:18.717Z,67.41333
2019-05-03T07:41:18.238Z,67.51709
2019-05-03T07:42:17.744Z,64.544678
2019-05-03T07:43:18.856Z,65.057373
2019-05-03T07:44:16.770Z,64.202881
2019-05-03T07:44:28.616Z,63.513184
2019-05-03T07:45:28.194Z,60.949707
2019-05-03T07:46:27.768Z,61.566162
2019-05-03T07:47:27.181Z,62.078857
2019-05-03T07:48:26.640Z,62.078857
2019-05-03T07:48:38.505Z,62.286377
2019-05-03T07:49:38.099Z,61.053467
2019-05-03T07:50:37.467Z,62.390137
2019-05-03T07:51:36.868Z,63.104248
2019-05-03T07:51:48.739Z,62.902832
2019-05-03T07:52:48.407Z,63.928223
2019-05-03T07:53:48.062Z,64.440918
2019-05-03T07:54:47.492Z,63.928223
2019-05-03T07:55:46.900Z,65.771484
2019-05-03T07:56:46.653Z,63.720703
2019-05-03T07:56:58.532Z,63.513184
2019-05-03T07:57:57.874Z,62.72583
2019-05-03T07:59:00.464Z,63.342285
2019-05-03T07:59:56.831Z,64.471436
2019-05-03T08:01:09.882Z,63.208008
2019-05-03T08:02:07.681Z,64.544678
2019-05-03T08:03:07.179Z,64.233398
2019-05-03T08:04:06.630Z,62.182617
2019-05-03T08:04:18.494Z,61.566162
2019-05-03T08:05:18.059Z,61.358643
2019-05-03T08:06:17.545Z,60.748291
2019-05-03T08:07:22.171Z,61.053467
2019-05-03T08:08:28.272Z,63.104248
2019-05-03T08:09:27.854Z,63.720703
2019-05-03T08:10:27.304Z,62.286377
2019-05-03T08:11:26.697Z,62.487793
2019-05-03T08:11:38.539Z,62.695312
2019-05-03T08:12:38.118Z,64.129639
2019-05-03T08:13:37.629Z,66.186523
2019-05-03T08:14:37.018Z,66.931152
2019-05-03T08:15:48.462Z,66.314697
2019-05-03T08:16:47.846Z,66.113281
2019-05-03T08:17:47.267Z,66.217041
2019-05-03T08:18:46.757Z,66.833496
2019-05-03T08:18:58.740Z,67.138672
2019-05-03T08:19:58.305Z,68.884277
2019-05-03T08:20:57.662Z,68.780518
2019-05-03T08:21:57.174Z,68.780518
2019-05-03T08:23:08.529Z,66.113281
2019-05-03T08:23:57.040Z,66.113281
2019-05-03T08:25:08.250Z,65.802002
2019-05-03T08:26:07.970Z,65.185547
2019-05-03T08:27:07.418Z,65.185547
2019-05-03T08:28:06.850Z,64.569092
2019-05-03T08:28:18.737Z,64.776611
2019-05-03T08:29:19.474Z,65.393066
2019-05-03T08:30:17.814Z,64.569092
2019-05-03T08:31:17.245Z,65.704346
2019-05-03T08:32:16.821Z,63.928223
2019-05-03T08:32:28.668Z,64.031982
2019-05-03T08:33:28.086Z,63.415527
2019-05-03T08:34:27.534Z,63.720703
2019-05-03T08:35:27.092Z,61.871338
2019-05-03T08:36:38.404Z,61.871338
2019-05-03T08:37:37.954Z,61.566162
2019-05-03T08:38:37.459Z,62.487793
2019-05-03T08:39:36.790Z,63.586426
2019-05-03T08:39:48.703Z,63.690186
2019-05-03T08:40:48.254Z,62.976074
2019-05-03T08:41:47.779Z,58.972168
2019-05-03T08:42:47.099Z,60.308838
2019-05-03T08:43:58.465Z,59.588623
2019-05-03T08:44:58.060Z,60.38208
2019-05-03T08:45:57.495Z,59.558105
2019-05-03T08:46:56.953Z,61.303711
2019-05-03T08:48:08.381Z,58.636475
2019-05-03T08:48:56.871Z,56.384277
2019-05-03T08:50:08.349Z,59.893799
2019-05-03T08:50:57.010Z,57.843018
2019-05-03T08:52:08.506Z,58.740234
2019-05-03T08:53:07.979Z,57.611084
2019-05-03T08:54:07.605Z,58.435059
2019-05-03T08:55:07.137Z,61.096191
2019-05-03T08:56:18.423Z,58.203125
2019-05-03T08:57:17.934Z,59.020996
2019-05-03T08:58:18.445Z,59.228516
2019-05-03T08:59:28.506Z,58.508301
2019-05-03T09:00:17.590Z,58.203125
2019-05-03T09:01:16.969Z,58.612061
2019-05-03T09:02:18.919Z,59.533691
2019-05-03T09:03:17.848Z,58.508301
2019-05-03T09:04:17.403Z,59.301758
2019-05-03T09:05:18.493Z,59.710693
2019-05-03T09:06:17.499Z,59.301758
2019-05-03T09:07:16.957Z,60.9375
2019-05-03T09:08:28.467Z,60.223389
2019-05-03T09:09:27.912Z,58.172607
2019-05-03T09:10:27.290Z,59.741211
2019-05-03T09:11:33.526Z,59.973145
2019-05-03T09:11:38.641Z,59.765625
2019-05-03T09:12:38.200Z,59.14917
2019-05-03T09:13:37.561Z,59.356689
2019-05-03T09:14:41.563Z,58.71582
2019-05-03T09:15:48.317Z,57.69043
2019-05-03T09:16:47.859Z,60.150146
2019-05-03T09:17:47.312Z,58.892822
2019-05-03T09:18:46.725Z,60.223389
2019-05-03T09:19:58.210Z,60.736084
2019-05-03T09:20:57.657Z,59.301758
2019-05-03T09:21:57.019Z,57.458496
2019-05-03T09:22:56.647Z,59.020996
2019-05-03T09:23:08.486Z,59.228516
2019-05-03T09:24:07.911Z,60.174561
2019-05-03T09:25:07.318Z,59.997559
2019-05-03T09:26:06.842Z,62.1521
2019-05-03T09:26:18.687Z,62.359619
2019-05-03T09:27:07.178Z,61.022949
2019-05-03T09:28:18.474Z,59.997559
2019-05-03T09:29:07.187Z,60.949707
2019-05-03T09:30:07.581Z,63.000488
2019-05-03T09:31:06.929Z,63.824463
2019-05-03T09:32:18.298Z,64.031982
2019-05-03T09:33:17.811Z,64.819336
2019-05-03T09:34:17.209Z,65.026855
2019-05-03T09:35:29.531Z,62.1521
2019-05-03T09:35:32.661Z,61.950684
2019-05-03T09:36:28.184Z,61.846924
2019-05-03T09:37:27.707Z,61.053467
2019-05-03T09:38:27.197Z,59.924316
2019-05-03T09:39:26.680Z,59.954834
2019-05-03T09:39:38.708Z,60.15625
2019-05-03T09:40:38.218Z,61.59668
2019-05-03T09:41:37.668Z,62.078857
2019-05-03T09:42:37.073Z,64.642334
2019-05-03T09:43:48.461Z,60.028076
2019-05-03T09:44:47.819Z,58.666992
2019-05-03T09:45:47.250Z,59.997559
2019-05-03T09:46:46.762Z,58.868408
2019-05-03T09:46:58.687Z,58.770752
2019-05-03T09:47:58.175Z,60.583496
2019-05-03T09:49:10.135Z,62.811279
2019-05-03T09:49:57.259Z,58.404541
2019-05-03T09:50:56.767Z,56.02417
2019-05-03T09:51:08.629Z,56.842041
2019-05-03T09:52:08.652Z,57.019043
2019-05-03T09:53:09.053Z,55.487061
2019-05-03T09:54:07.215Z,57.098389
2019-05-03T09:55:06.773Z,54.052734
2019-05-03T09:55:18.610Z,54.669189
2019-05-03T09:56:18.095Z,58.453369
2019-05-03T09:57:06.729Z,58.251953
2019-05-03T09:57:18.578Z,57.635498
2019-05-03T09:58:18.155Z,57.531738
2019-05-03T09:59:17.531Z,54.974365
2019-05-03T10:00:16.922Z,54.156494
2019-05-03T10:01:28.382Z,54.974365
2019-05-03T10:02:27.780Z,54.25415
2019-05-03T10:03:27.269Z,56.713867
2019-05-03T10:04:26.714Z,58.94165
2019-05-03T10:04:38.698Z,59.759521
2019-05-03T10:05:38.240Z,56.481934
2019-05-03T10:06:37.605Z,55.535889
2019-05-03T10:07:36.997Z,58.782959
2019-05-03T10:08:48.341Z,53.668213
2019-05-03T10:09:47.891Z,52.850342
2019-05-03T10:10:47.489Z,52.850342
2019-05-03T10:11:46.892Z,54.388428
2019-05-03T10:12:58.340Z,54.180908
2019-05-03T10:13:48.545Z,53.594971
2019-05-03T10:14:58.348Z,55.328369
2019-05-03T10:15:57.846Z,53.387451
2019-05-03T10:16:57.221Z,54.229736
2019-05-03T10:17:56.756Z,55.078125
2019-05-03T10:18:10.908Z,54.870605
2019-05-03T10:19:08.001Z,55.303955
2019-05-03T10:20:08.394Z,56.768799
2019-05-03T10:21:07.824Z,58.099365
2019-05-03T10:22:07.273Z,57.995605
2019-05-03T10:23:18.461Z,59.228516
2019-05-03T10:24:17.894Z,59.838867
2019-05-03T10:25:07.524Z,58.813477
2019-05-03T10:25:18.609Z,58.404541
2019-05-03T10:26:17.990Z,59.558105
2019-05-03T10:27:17.478Z,60.308838
2019-05-03T10:28:16.806Z,58.770752
2019-05-03T10:29:28.239Z,60.437012
2019-05-03T10:30:27.753Z,61.358643
2019-05-03T10:31:27.108Z,61.846924
2019-05-03T10:32:26.707Z,62.1521
2019-05-03T10:32:38.591Z,61.437988
2019-05-03T10:33:38.275Z,63.458252
2019-05-03T10:34:37.713Z,61.273193
2019-05-03T10:35:37.265Z,61.273193